This is the latest recevied weather packets stored in our database for station/object K2HF. If no packets are shown the sender has not sent any weather packets the latest 10 day(s).
| Time | Temp. | Humidity | Pressure | Rain* | Wind** | Luminosity | Snow |
|---|---|---|---|---|---|---|---|
| 1777480473 | 16.11° C | 62% | 1014.6 hPa | 0 mm | - | - | - |
| 1777480414 | 16.11° C | 62% | 1014.6 hPa | 0 mm | - | - | - |
| 1777480353 | 16.11° C | 62% | 1014.7 hPa | 0 mm | - | - | - |
| 1777480296 | 16.11° C | 62% | 1014.7 hPa | 0 mm | - | - | - |
| 1777480231 | 16.11° C | 63% | 1014.7 hPa | 0 mm | - | - | - |
| 1777480171 | 16.11° C | 62% | 1014.7 hPa | 0 mm | - | - | - |
| 1777480112 | 16.11° C | 62% | 1014.7 hPa | 0 mm | - | - | - |
| 1777480051 | 16.11° C | 62% | 1014.7 hPa | 0 mm | - | - | - |
| 1777479996 | 15.56° C | 62% | 1014.7 hPa | 0 mm | - | - | - |
| 1777479931 | 15.56° C | 62% | 1014.8 hPa | 0 mm | - | - | - |
| 1777479871 | 15.56° C | 62% | 1014.7 hPa | 0 mm | - | - | - |
| 1777479813 | 15.56° C | 61% | 1014.8 hPa | 0 mm | - | - | - |
| 1777479752 | 15° C | 59% | 1014.7 hPa | 0 mm | - | - | - |
| 1777479696 | 15° C | 61% | 1014.8 hPa | 0 mm | - | - | - |
| 1777479631 | 14.44° C | 61% | 1014.8 hPa | 0 mm | - | - | - |
| 1777479572 | 14.44° C | 61% | 1014.8 hPa | 0 mm | - | - | - |
| 1777479509 | 14.44° C | 56% | 1014.7 hPa | 0 mm | - | - | - |
| 1777479449 | 14.44° C | 53% | 1014.6 hPa | 0 mm | - | - | - |
| 1777479394 | 13.89° C | 50% | 1014.6 hPa | 0 mm | - | - | - |
| 1777479330 | 13.89° C | 42% | 1014.4 hPa | 0 mm | - | - | - |
| 1777479270 | 13.89° C | 42% | 1014.4 hPa | 0 mm | - | - | - |
| 1777479210 | 13.33° C | 42% | 1014.3 hPa | 0 mm | - | - | - |
| 1777479149 | 13.33° C | 42% | 1014.3 hPa | 0 mm | - | - | - |
| 1777479092 | 13.33° C | 42% | 1014.4 hPa | 0 mm | - | - | - |
| 1777479030 | 13.33° C | 43% | 1014.4 hPa | 0 mm | - | - | - |
* Rain latest hour (hover to see other rain measurements)
** Current wind speed in m/s (hover to see current wind gust speed)